Latest Weather Observations for Ocean Reef

IDW60801

Issued at 12:35 pm WST Tuesday 2 September 2014 (issued every 30 minutes, with the page automatically refreshed every 10 minutes)

About weather observations | Map of weather stations | Latest weather observations for WA | Other Formats
Station Details ID: 009214 Name: OCEAN REEF Lat: -31.76 Lon: 115.73 Height: 10.0 m
Data from the previous 72 hours. | See also: Recent months for locations in Western Australia
Date/Time
WST
Temp
°C
App
Temp
°C
Dew
Point
Rel
Hum
%
Delta-T
°C
Wind Press
QNH
hPa
Press
MSL
hPa
Rain
since 9 am
mm
Dir
 
Spd
km/h
Gust
km/h
Spd
kts
Gust
kts
02/12:30pm - - - - - N 11 17 6 9 - - -
02/12:00pm - - - - - NE 9 13 5 7 - - -
02/11:30am - - - - - NE 15 22 8 12 - - -
02/11:00am - - - - - ENE 13 19 7 10 - - -
02/10:30am - - - - - NNE 6 9 3 5 - - -
02/10:00am - - - - - NNE 7 13 4 7 - - -
02/09:30am - - - - - N 9 15 5 8 - - -
02/09:00am - - - - - ENE 19 24 10 13 - - -
02/08:30am - - - - - ENE 22 28 12 15 - - -
02/08:00am - - - - - NE 17 24 9 13 - - -
02/07:30am - - - - - E 22 30 12 16 - - -
02/07:00am - - - - - NE 20 28 11 15 - - -
02/06:30am - - - - - ENE 13 19 7 10 - - -
02/06:00am - - - - - S 6 9 3 5 - - -
02/05:30am - - - - - NNE 4 7 2 4 - - -
02/05:00am - - - - - NE 2 7 1 4 - - -
02/04:30am - - - - - E 2 9 1 5 - - -
02/04:00am - - - - - S 7 9 4 5 - - -
02/03:30am - - - - - S 6 9 3 5 - - -
02/03:00am - - - - - NE 4 9 2 5 - - -
02/02:30am - - - - - SSE 15 19 8 10 - - -
02/02:00am - - - - - S 13 17 7 9 - - -
02/01:30am - - - - - SSE 13 15 7 8 - - -
02/01:00am - - - - - E 15 19 8 10 - - -
02/12:30am - - - - - ENE 19 26 10 14 - - -
02/12:00am - - - - - E 19 24 10 13 - - -
 
Date/Time
WST
Temp
°C
App
Temp
°C
Dew
Point
Rel
Hum
%
Delta-T
°C
Wind Press
QNH
hPa
Press
MSL
hPa
Rain
since 9 am
mm
Dir
 
Spd
km/h
Gust
km/h
Spd
kts
Gust
kts
01/11:30pm - - - - - E 17 22 9 12 - - -
01/11:00pm - - - - - E 15 19 8 10 - - -
01/10:30pm - - - - - E 17 20 9 11 - - -
01/10:00pm - - - - - ESE 13 17 7 9 - - -
01/09:30pm - - - - - ESE 13 17 7 9 - - -
01/09:00pm - - - - - ESE 13 19 7 10 - - -
01/08:30pm - - - - - ESE 13 19 7 10 - - -
01/08:00pm - - - - - ESE 15 19 8 10 - - -
01/07:30pm - - - - - ESE 13 15 7 8 - - -
01/07:00pm - - - - - ESE 13 19 7 10 - - -
01/06:30pm - - - - - ESE 11 15 6 8 - - -
01/06:00pm - - - - - ESE 11 15 6 8 - - -
01/05:30pm - - - - - E 13 17 7 9 - - -
01/05:00pm - - - - - E 15 22 8 12 - - -
01/04:30pm - - - - - E 15 24 8 13 - - -
01/04:00pm - - - - - ENE 17 30 9 16 - - -
01/03:30pm - - - - - ENE 17 26 9 14 - - -
01/03:00pm - - - - - E 17 26 9 14 - - -
01/02:30pm - - - - - E 15 30 8 16 - - -
01/02:00pm - - - - - E 19 28 10 15 - - -
01/01:30pm - - - - - ENE 17 26 9 14 - - -
01/01:00pm - - - - - ENE 17 28 9 15 - - -
01/12:30pm - - - - - E 19 32 10 17 - - -
01/12:00pm - - - - - NE 20 32 11 17 - - -
01/11:30am - - - - - E 17 24 9 13 - - -
01/11:00am - - - - - ENE 19 32 10 17 - - -
01/10:30am - - - - - ENE 24 33 13 18 - - -
01/10:00am - - - - - ENE 22 33 12 18 - - -
01/09:30am - - - - - E 20 32 11 17 - - -
01/09:00am - - - - - E 20 33 11 18 - - -
01/08:30am - - - - - ENE 24 33 13 18 - - -
01/08:00am - - - - - E 19 32 10 17 - - -
01/07:30am - - - - - E 19 30 10 16 - - -
01/07:00am - - - - - E 19 26 10 14 - - -
01/06:30am - - - - - E 17 26 9 14 - - -
01/06:00am - - - - - ENE 13 17 7 9 - - -
01/05:30am - - - - - E 15 22 8 12 - - -
01/05:00am - - - - - E 15 19 8 10 - - -
01/04:30am - - - - - E 17 24 9 13 - - -
01/04:00am - - - - - E 17 22 9 12 - - -
01/03:30am - - - - - E 17 26 9 14 - - -
01/03:00am - - - - - E 17 22 9 12 - - -
01/02:30am - - - - - ESE 19 26 10 14 - - -
01/02:00am - - - - - ESE 11 13 6 7 - - -
01/01:30am - - - - - SE 9 13 5 7 - - -
01/01:00am - - - - - ESE 11 15 6 8 - - -
01/12:30am - - - - - ESE 13 17 7 9 - - -
01/12:00am - - - - - E 15 17 8 9 - - -
 
Date/Time
WST
Temp
°C
App
Temp
°C
Dew
Point
Rel
Hum
%
Delta-T
°C
Wind Press
QNH
hPa
Press
MSL
hPa
Rain
since 9 am
mm
Dir
 
Spd
km/h
Gust
km/h
Spd
kts
Gust
kts
31/11:30pm - - - - - ESE 13 17 7 9 - - -
31/11:00pm - - - - - ESE 13 17 7 9 - - -
31/10:30pm - - - - - ESE 15 19 8 10 - - -
31/10:00pm - - - - - SE 13 15 7 8 - - -
31/09:30pm - - - - - SE 15 19 8 10 - - -
31/09:00pm - - - - - SSE 17 22 9 12 - - -
31/08:30pm - - - - - SSE 15 20 8 11 - - -
31/08:00pm - - - - - SSE 17 20 9 11 - - -
31/07:30pm - - - - - SSE 17 26 9 14 - - -
31/07:00pm - - - - - SSE 17 24 9 13 - - -
31/06:30pm - - - - - SSE 19 28 10 15 - - -
31/06:00pm - - - - - S 22 28 12 15 - - -
31/05:30pm - - - - - S 24 30 13 16 - - -
31/05:00pm - - - - - SSW 22 30 12 16 - - -
31/04:30pm - - - - - S 20 26 11 14 - - -
31/04:00pm - - - - - S 17 24 9 13 - - -
31/03:30pm - - - - - SSW 19 24 10 13 - - -
31/03:00pm - - - - - SSW 17 20 9 11 - - -
31/02:30pm - - - - - SSW 17 20 9 11 - - -
31/02:00pm - - - - - S 19 24 10 13 - - -
31/01:30pm - - - - - SSW 17 24 9 13 - - -
31/01:00pm - - - - - S 17 22 9 12 - - -
31/12:30pm - - - - - SSW 20 26 11 14 - - -
31/12:00pm - - - - - S 24 28 13 15 - - -
31/11:30am - - - - - S 19 24 10 13 - - -
31/11:00am - - - - - SE 13 20 7 11 - - -
31/10:30am - - - - - SE 11 17 6 9 - - -
31/10:00am - - - - - SSE 13 17 7 9 - - -
31/09:30am - - - - - SE 13 17 7 9 - - -
31/09:00am - - - - - ESE 9 13 5 7 - - -
31/08:30am - - - - - CALM 0 0 0 0 - - -
31/08:00am - - - - - E 7 9 4 5 - - -
31/07:30am - - - - - E 6 7 3 4 - - -
31/07:00am - - - - - E 7 11 4 6 - - -
31/06:30am - - - - - E 9 13 5 7 - - -
31/06:00am - - - - - E 11 13 6 7 - - -
31/05:30am - - - - - ESE 13 19 7 10 - - -
31/05:00am - - - - - SE 11 13 6 7 - - -
31/04:30am - - - - - S 22 32 12 17 - - -
31/04:00am - - - - - S 24 37 13 20 - - -
31/03:54am - - - - - S 20 28 11 15 - - -
31/03:46am - - - - - SW 43 48 23 26 - - -
31/03:30am - - - - - SW 22 28 12 15 - - -
31/03:00am - - - - - SW 26 32 14 17 - - -
31/02:30am - - - - - SSW 20 22 11 12 - - -
31/02:00am - - - - - WSW 28 35 15 19 - - -
31/01:33am - - - - - SW 28 46 15 25 - - -
31/01:30am - - - - - SW 22 39 12 21 - - -
31/01:00am - - - - - SW 24 32 13 17 - - -
31/12:30am - - - - - WSW 24 32 13 17 - - -
31/12:00am - - - - - W 26 32 14 17 - - -
 
Date/Time
WST
Temp
°C
App
Temp
°C
Dew
Point
Rel
Hum
%
Delta-T
°C
Wind Press
QNH
hPa
Press
MSL
hPa
Rain
since 9 am
mm
Dir
 
Spd
km/h
Gust
km/h
Spd
kts
Gust
kts
30/11:30pm - - - - - WSW 24 30 13 16 - - -
30/11:00pm - - - - - WSW 20 26 11 14 - - -
30/10:30pm - - - - - SW 19 22 10 12 - - -
30/10:00pm - - - - - W 22 30 12 16 - - -
30/09:30pm - - - - - WSW 17 20 9 11 - - -
30/09:00pm - - - - - WSW 22 30 12 16 - - -
30/08:30pm - - - - - WSW 19 28 10 15 - - -
30/08:00pm - - - - - WSW 22 30 12 16 - - -
30/07:30pm - - - - - WSW 24 30 13 16 - - -
30/07:00pm - - - - - WSW 22 30 12 16 - - -
30/06:30pm - - - - - SW 22 28 12 15 - - -
30/06:00pm - - - - - SW 20 24 11 13 - - -
30/05:30pm - - - - - SW 20 26 11 14 - - -
30/05:00pm - - - - - SW 22 28 12 15 - - -
30/04:30pm - - - - - SW 20 26 11 14 - - -
30/04:00pm - - - - - SSW 19 24 10 13 - - -
30/03:30pm - - - - - S 22 26 12 14 - - -
30/03:00pm - - - - - SSW 19 24 10 13 - - -
30/02:30pm - - - - - SSW 15 19 8 10 - - -
30/02:00pm - - - - - S 17 19 9 10 - - -
30/01:30pm - - - - - S 19 22 10 12 - - -
30/01:00pm - - - - - SW 17 22 9 12 - - -

Other Formats:

Comma delimited format used in spreadsheet applications
http://www.bom.gov.au/fwo/IDW60801/IDW60801.94607.axf

JavaScript Object Notation format (JSON) in row-major order
http://www.bom.gov.au/fwo/IDW60801/IDW60801.94607.json